createdAt,value
2023-04-15T00:00:33.488Z,83.1
2023-04-15T00:01:34.816Z,83.1
2023-04-15T00:02:36.572Z,83.1
2023-04-15T00:03:39.173Z,83.2
2023-04-15T00:04:40.544Z,83.2
2023-04-15T00:05:41.365Z,83.2
2023-04-15T00:06:42.385Z,83.2
2023-04-15T00:07:43.555Z,83.2
2023-04-15T00:08:44.514Z,83.3
2023-04-15T00:09:45.705Z,83.3
2023-04-15T00:10:47.044Z,83.3
2023-04-15T00:11:48.221Z,83.3
2023-04-15T00:12:49.373Z,83.4
2023-04-15T00:13:50.535Z,83.4
2023-04-15T00:14:51.895Z,83.4
2023-04-15T00:15:53.064Z,83.5
2023-04-15T00:16:54.372Z,83.5
2023-04-15T00:17:55.806Z,83.5
2023-04-15T00:18:56.959Z,83.6
2023-04-15T00:19:58.124Z,83.6
2023-04-15T00:20:59.098Z,83.6
2023-04-15T00:22:00.268Z,83.6
2023-04-15T00:23:01.434Z,83.6
2023-04-15T00:24:02.736Z,83.7
2023-04-15T00:25:03.598Z,83.7
2023-04-15T00:26:04.750Z,83.7
2023-04-15T00:27:05.998Z,83.7
2023-04-15T00:28:07.212Z,83.8
2023-04-15T00:29:08.372Z,83.8
2023-04-15T00:30:09.389Z,83.9
2023-04-15T00:31:10.867Z,84
2023-04-15T00:32:12.006Z,84
2023-04-15T00:33:12.816Z,84.1
2023-04-15T00:34:13.979Z,84.1
2023-04-15T00:35:15.156Z,84.2
2023-04-15T00:36:16.320Z,84.2
2023-04-15T00:37:17.476Z,84.2
2023-04-15T00:38:18.663Z,84.3
2023-04-15T00:39:19.676Z,84.3
2023-04-15T00:40:20.866Z,84.3
2023-04-15T00:41:22.010Z,84.4
2023-04-15T00:42:22.974Z,84.4
2023-04-15T00:43:24.140Z,84.5
2023-04-15T00:44:25.312Z,84.5
2023-04-15T00:45:26.469Z,84.6
2023-04-15T00:46:27.481Z,84.6
2023-04-15T00:47:28.688Z,84.7
2023-04-15T00:48:29.734Z,84.7
2023-04-15T00:49:30.899Z,84.8
2023-04-15T00:50:32.074Z,84.9
2023-04-15T00:51:33.229Z,84.9
2023-04-15T00:52:34.396Z,85
2023-04-15T00:53:35.364Z,85.1
2023-04-15T00:54:36.535Z,85.1
2023-04-15T00:55:37.720Z,85.2
2023-04-15T00:56:38.857Z,85.2
2023-04-15T00:57:40.024Z,85.3
2023-04-15T00:58:41.187Z,85.3
2023-04-15T00:59:42.351Z,85.4
2023-04-15T01:00:43.323Z,85.4
2023-04-15T01:01:44.782Z,85.4
2023-04-15T01:02:46.323Z,85.5
2023-04-15T01:03:48.135Z,85.5
2023-04-15T01:04:49.342Z,85.6
2023-04-15T01:05:50.507Z,85.7
2023-04-15T01:06:51.675Z,85.7
2023-04-15T01:07:52.643Z,85.7
2023-04-15T01:08:53.615Z,85.8
2023-04-15T01:09:54.770Z,85.8
2023-04-15T01:10:55.963Z,85.8
2023-04-15T01:11:57.107Z,85.9
2023-04-15T01:12:58.264Z,86
2023-04-15T01:13:59.075Z,86
2023-04-15T01:15:00.285Z,86.1
2023-04-15T01:16:01.610Z,86.2
2023-04-15T01:17:02.778Z,86.2
2023-04-15T01:18:04.061Z,86.3
2023-04-15T01:19:05.033Z,86.3
2023-04-15T01:20:06.195Z,86.4
2023-04-15T01:21:07.357Z,86.4
2023-04-15T01:22:08.556Z,86.5
2023-04-15T01:23:09.489Z,86.5
2023-04-15T01:24:10.658Z,86.6
2023-04-15T01:25:11.821Z,86.6
2023-04-15T01:26:12.822Z,86.7
2023-04-15T01:27:13.832Z,86.8
2023-04-15T01:28:14.998Z,86.8
2023-04-15T01:29:16.167Z,86.9
2023-04-15T01:30:17.355Z,86.9
2023-04-15T01:31:18.329Z,86.9
2023-04-15T01:32:19.532Z,86.9
2023-04-15T01:33:20.775Z,87
2023-04-15T01:34:21.940Z,87
2023-04-15T01:35:23.105Z,87
2023-04-15T01:36:24.265Z,87
2023-04-15T01:37:25.429Z,87.1
2023-04-15T01:38:26.636Z,87.1
2023-04-15T01:39:27.799Z,87.2
2023-04-15T01:40:28.966Z,87.2
2023-04-15T01:41:30.153Z,87.2
2023-04-15T01:42:31.292Z,87.3
2023-04-15T01:43:32.265Z,87.3
2023-04-15T01:44:33.279Z,87.3
2023-04-15T01:45:34.477Z,87.4
2023-04-15T01:46:35.886Z,87.4
2023-04-15T01:47:37.205Z,87.4
2023-04-15T01:48:38.097Z,87.5
2023-04-15T01:49:39.248Z,87.5
2023-04-15T01:50:40.417Z,87.5
2023-04-15T01:51:41.579Z,87.6
2023-04-15T01:52:42.749Z,87.6
2023-04-15T01:53:43.910Z,87.6
2023-04-15T01:54:45.074Z,87.6
2023-04-15T01:55:46.047Z,87.7
2023-04-15T01:57:53.212Z,87.8
2023-04-15T01:58:54.359Z,87.8
2023-04-15T01:59:55.521Z,87.8
2023-04-15T02:00:56.578Z,87.8
2023-04-15T02:01:57.770Z,87.8
2023-04-15T02:02:58.907Z,87.8
2023-04-15T02:03:59.924Z,87.8
2023-04-15T02:05:01.082Z,87.9
2023-04-15T02:06:02.247Z,87.9
2023-04-15T02:07:03.216Z,88
2023-04-15T02:08:04.233Z,88
2023-04-15T02:09:05.396Z,88.1
2023-04-15T02:10:06.552Z,88.1
2023-04-15T02:11:07.726Z,88.2
2023-04-15T02:12:08.895Z,88.2
2023-04-15T02:13:10.084Z,88.2
2023-04-15T02:14:11.221Z,88.2
2023-04-15T02:15:12.389Z,88.3
2023-04-15T02:16:13.596Z,88.3
2023-04-15T02:17:14.746Z,88.4
2023-04-15T02:18:15.911Z,88.4
2023-04-15T02:19:17.077Z,88.4
2023-04-15T02:20:18.244Z,88.5
2023-04-15T02:21:19.018Z,88.5
2023-04-15T02:22:20.191Z,88.6
2023-04-15T02:23:21.344Z,88.6
2023-04-15T02:24:22.509Z,88.6
2023-04-15T02:25:23.673Z,88.6
2023-04-15T02:26:24.842Z,88.7
2023-04-15T02:27:25.812Z,88.8
2023-04-15T02:28:26.848Z,88.9
2023-04-15T02:29:27.861Z,88.9
2023-04-15T02:30:29.019Z,89
2023-04-15T02:31:30.324Z,89
2023-04-15T02:32:31.508Z,89.1
2023-04-15T02:33:32.480Z,89.1
2023-04-15T02:34:33.641Z,89.2
2023-04-15T02:35:34.803Z,89.2
2023-04-15T02:36:35.968Z,89.3
2023-04-15T02:37:37.147Z,89.3
2023-04-15T02:38:38.303Z,89.4
2023-04-15T02:39:39.465Z,89.4
2023-04-15T02:40:40.957Z,89.5
2023-04-15T02:41:42.110Z,89.5
2023-04-15T02:42:43.307Z,89.5
2023-04-15T02:43:44.547Z,89.6
2023-04-15T02:44:45.559Z,89.6
2023-04-15T02:45:46.945Z,89.7
2023-04-15T02:46:48.092Z,89.7
2023-04-15T02:47:49.423Z,89.8
2023-04-15T02:48:50.699Z,89.8
2023-04-15T02:49:51.870Z,89.9
2023-04-15T02:50:53.030Z,90
2023-04-15T02:51:54.194Z,90
2023-04-15T02:52:55.362Z,90
2023-04-15T02:53:56.520Z,90
2023-04-15T02:54:57.688Z,90.1
2023-04-15T02:55:58.866Z,90.1
2023-04-15T02:57:00.018Z,90.2
2023-04-15T02:58:01.183Z,90.2
2023-04-15T02:59:03.249Z,90.2
2023-04-15T03:00:04.500Z,90.3
2023-04-15T03:01:05.925Z,90.4
2023-04-15T03:02:07.033Z,90.4
2023-04-15T03:03:08.877Z,90.5
2023-04-15T03:04:10.420Z,90.5
2023-04-15T03:05:11.705Z,90.6
2023-04-15T03:06:12.857Z,90.6
2023-04-15T03:07:14.031Z,90.7
2023-04-15T03:08:15.197Z,90.7
2023-04-15T03:09:16.366Z,90.7
2023-04-15T03:10:17.575Z,90.8
2023-04-15T03:11:18.913Z,90.8
2023-04-15T03:12:20.080Z,90.9
2023-04-15T03:13:21.242Z,90.9
2023-04-15T03:14:22.445Z,90.9
2023-04-15T03:15:23.589Z,91
2023-04-15T03:16:24.735Z,91.1
2023-04-15T03:17:25.956Z,91.1
2023-04-15T03:18:27.105Z,91.1
2023-04-15T03:19:28.264Z,91.1
2023-04-15T03:20:29.668Z,91.1
2023-04-15T03:21:30.623Z,91.2
2023-04-15T03:22:31.594Z,91.2
2023-04-15T03:23:32.762Z,91.2
2023-04-15T03:24:33.923Z,91.3
2023-04-15T03:25:34.896Z,91.3
2023-04-15T03:26:36.064Z,91.3
2023-04-15T03:27:37.470Z,91.3
2023-04-15T03:28:38.636Z,91.4
2023-04-15T03:29:39.824Z,91.4
2023-04-15T03:30:44.046Z,91.5
2023-04-15T03:31:45.216Z,91.5
2023-04-15T03:32:46.451Z,91.5
2023-04-15T03:33:47.612Z,91.6
2023-04-15T03:34:48.779Z,91.6
2023-04-15T03:35:49.944Z,91.6
2023-04-15T03:36:50.773Z,91.6
2023-04-15T03:37:51.723Z,91.7
2023-04-15T03:38:52.906Z,91.7
2023-04-15T03:39:54.053Z,91.7
2023-04-15T03:40:55.228Z,91.8
2023-04-15T03:41:56.393Z,91.8
2023-04-15T03:42:57.555Z,91.8
2023-04-15T03:43:58.720Z,91.8
2023-04-15T03:44:59.906Z,91.9
2023-04-15T03:46:02.628Z,91.9
2023-04-15T03:47:03.793Z,91.9
2023-04-15T03:48:18.918Z,91.9
2023-04-15T03:49:20.066Z,92
2023-04-15T03:50:21.239Z,92
2023-04-15T03:51:22.399Z,92
2023-04-15T03:52:23.555Z,92
2023-04-15T03:53:24.725Z,92
2023-04-15T03:54:25.889Z,92.1
2023-04-15T03:55:27.060Z,92.1
2023-04-15T03:56:28.221Z,92.1
2023-04-15T03:57:29.187Z,92.1
2023-04-15T03:58:30.350Z,92.1
2023-04-15T03:59:31.327Z,92.2
2023-04-15T04:00:32.529Z,92.2
2023-04-15T04:01:33.551Z,92.2
2023-04-15T04:02:35.259Z,92.2
2023-04-15T04:03:36.798Z,92.2
2023-04-15T04:04:37.830Z,92.2
2023-04-15T04:05:39.031Z,92.3
2023-04-15T04:06:40.326Z,92.3
2023-04-15T04:07:41.493Z,92.3
2023-04-15T04:08:42.669Z,92.4
2023-04-15T04:09:45.685Z,92.4
2023-04-15T04:10:48.209Z,92.4
2023-04-15T04:11:49.373Z,92.4
2023-04-15T04:12:50.539Z,92.5
2023-04-15T04:13:51.705Z,92.5
2023-04-15T04:14:52.864Z,92.6
2023-04-15T04:15:54.286Z,92.6
2023-04-15T04:16:55.461Z,92.6
2023-04-15T04:17:56.604Z,92.6
2023-04-15T04:18:57.885Z,92.7
2023-04-15T04:19:58.862Z,92.7
2023-04-15T04:21:00.028Z,92.7
2023-04-15T04:22:01.187Z,92.7
2023-04-15T04:23:02.349Z,92.7
2023-04-15T04:24:03.365Z,92.8
2023-04-15T04:25:04.522Z,92.8
2023-04-15T04:26:05.685Z,92.8
2023-04-15T04:27:06.847Z,92.8
2023-04-15T04:28:07.819Z,92.8
2023-04-15T04:29:08.987Z,92.8
2023-04-15T04:30:10.150Z,92.9
2023-04-15T04:31:11.345Z,92.9
2023-04-15T04:32:13.288Z,92.9
2023-04-15T04:33:14.469Z,93
2023-04-15T04:34:15.627Z,93
2023-04-15T04:35:16.652Z,93.1
2023-04-15T04:36:17.797Z,93.1
2023-04-15T04:37:18.771Z,93.1
2023-04-15T04:38:19.930Z,93.2
2023-04-15T04:39:21.095Z,93.2
2023-04-15T04:40:22.112Z,93.2
2023-04-15T04:41:23.276Z,93.2
2023-04-15T04:42:24.438Z,93.2
2023-04-15T04:43:25.610Z,93.3
2023-04-15T04:44:26.769Z,93.3
2023-04-15T04:45:27.937Z,93.3
2023-04-15T04:46:29.124Z,93.4
2023-04-15T04:47:30.309Z,93.4
2023-04-15T04:48:31.456Z,93.4
2023-04-15T04:49:32.424Z,93.4
2023-04-15T04:50:33.591Z,93.4
2023-04-15T04:51:34.771Z,93.4
2023-04-15T04:52:35.923Z,93.5
2023-04-15T04:53:37.089Z,93.5
2023-04-15T04:54:37.857Z,93.5
2023-04-15T04:55:39.035Z,93.6
2023-04-15T04:56:40.093Z,93.6
2023-04-15T04:57:41.276Z,93.6
2023-04-15T04:58:42.445Z,93.6
2023-04-15T04:59:43.599Z,93.7
2023-04-15T05:00:44.759Z,93.7
2023-04-15T05:01:46.208Z,93.7
2023-04-15T05:02:47.728Z,93.7
2023-04-15T05:03:49.284Z,93.8
2023-04-15T05:04:50.538Z,93.8
2023-04-15T05:05:51.696Z,93.8
2023-04-15T05:06:52.861Z,93.8
2023-04-15T05:07:54.043Z,93.9
2023-04-15T05:08:55.194Z,93.9
2023-04-15T05:09:56.361Z,93.9
2023-04-15T05:10:57.524Z,93.9
2023-04-15T05:11:58.493Z,94
2023-04-15T05:12:59.652Z,94
2023-04-15T05:14:00.820Z,94
2023-04-15T05:15:01.983Z,94.1
2023-04-15T05:16:03.246Z,94.1
2023-04-15T05:17:04.481Z,94.1
2023-04-15T05:18:05.547Z,94.1
2023-04-15T05:19:06.814Z,94.1
2023-04-15T05:20:07.784Z,94
2023-04-15T05:21:08.753Z,94.1
2023-04-15T05:22:09.913Z,94.1
2023-04-15T05:23:11.084Z,94.1
2023-04-15T05:24:12.249Z,94.1
2023-04-15T05:25:13.413Z,94.1
2023-04-15T05:26:14.581Z,94.1
2023-04-15T05:27:15.742Z,94.1
2023-04-15T05:28:16.908Z,94.1
2023-04-15T05:29:18.070Z,94.1
2023-04-15T05:30:19.234Z,94.1
2023-04-15T05:31:20.442Z,94.1
2023-04-15T05:32:21.516Z,94.1
2023-04-15T05:33:22.912Z,94.1
2023-04-15T05:34:24.080Z,94.1
2023-04-15T05:35:25.245Z,94.1
2023-04-15T05:36:26.408Z,94.1
2023-04-15T05:37:27.580Z,94.2
2023-04-15T05:38:28.780Z,94.2
2023-04-15T05:39:29.786Z,94.2
2023-04-15T05:40:30.952Z,94.2
2023-04-15T05:41:32.143Z,94.2
2023-04-15T05:42:33.305Z,94.2
2023-04-15T05:43:34.470Z,94.2
2023-04-15T05:44:35.634Z,94.2
2023-04-15T05:45:36.800Z,94.2
2023-04-15T05:46:38.149Z,94.2
2023-04-15T05:47:39.186Z,94.2
2023-04-15T05:48:40.402Z,94.2
2023-04-15T05:49:41.381Z,94.3
2023-04-15T05:50:42.543Z,94.3
2023-04-15T05:51:43.709Z,94.3
2023-04-15T05:52:44.678Z,94.3
2023-04-15T05:53:45.842Z,94.3
2023-04-15T05:54:46.864Z,94.3
2023-04-15T05:55:48.013Z,94.3
2023-04-15T05:56:49.176Z,94.3
2023-04-15T05:57:50.503Z,94.3
2023-04-15T05:58:54.133Z,94.3
2023-04-15T05:59:55.305Z,94.4
2023-04-15T06:00:56.466Z,94.4
2023-04-15T06:01:57.662Z,94.4
2023-04-15T06:02:58.818Z,94.4
2023-04-15T06:04:00.049Z,94.4
2023-04-15T06:05:01.468Z,94.4
2023-04-15T06:06:02.680Z,94.4
2023-04-15T06:07:03.845Z,94.4
2023-04-15T06:08:05.013Z,94.4
2023-04-15T06:09:06.186Z,94.4
2023-04-15T06:10:07.345Z,94.4
2023-04-15T06:11:08.365Z,94.4
2023-04-15T06:12:09.537Z,94.4
2023-04-15T06:13:10.703Z,94.4
2023-04-15T06:14:11.896Z,94.5
2023-04-15T06:15:13.154Z,94.5
2023-04-15T06:16:14.241Z,94.5
2023-04-15T06:17:15.369Z,94.5
2023-04-15T06:18:16.572Z,94.5
2023-04-15T06:19:17.705Z,94.5
2023-04-15T06:20:18.678Z,94.5
2023-04-15T06:21:19.843Z,94.5
2023-04-15T06:22:21.013Z,94.5
2023-04-15T06:23:22.169Z,94.6
2023-04-15T06:24:23.136Z,94.6
2023-04-15T06:25:24.305Z,94.6
2023-04-15T06:26:25.468Z,94.6
2023-04-15T06:27:26.631Z,94.6
2023-04-15T06:28:27.795Z,94.6
2023-04-15T06:29:28.964Z,94.6
2023-04-15T06:30:30.129Z,94.6
2023-04-15T06:31:31.314Z,94.6
2023-04-15T06:32:32.494Z,94.6
2023-04-15T06:33:33.668Z,94.6
2023-04-15T06:34:35.236Z,94.6
2023-04-15T06:35:36.403Z,94.6
2023-04-15T06:36:37.563Z,94.5
2023-04-15T06:37:38.595Z,94.5
2023-04-15T06:38:39.224Z,94.5
2023-04-15T06:39:40.375Z,94.5
2023-04-15T06:40:41.191Z,94.4
2023-04-15T06:41:42.356Z,94.4
2023-04-15T06:42:43.525Z,94.4
2023-04-15T06:43:44.682Z,94.4
2023-04-15T06:44:45.851Z,94.4
2023-04-15T06:45:47.044Z,94.4
2023-04-15T06:46:48.287Z,94.4
2023-04-15T06:47:49.482Z,94.4
2023-04-15T06:48:50.656Z,94.4
2023-04-15T06:49:51.668Z,94.4
2023-04-15T06:50:52.636Z,94.4
2023-04-15T06:51:53.988Z,94.5
2023-04-15T06:52:55.282Z,94.4
2023-04-15T06:53:56.448Z,94.4
2023-04-15T06:54:57.617Z,94.4
2023-04-15T06:55:58.771Z,94.4
2023-04-15T06:56:59.949Z,94.4
2023-04-15T06:58:01.136Z,94.4
2023-04-15T06:59:02.910Z,94.4
2023-04-15T07:00:04.047Z,94.5
2023-04-15T07:01:05.248Z,94.5
2023-04-15T07:02:06.430Z,94.5
2023-04-15T07:03:07.500Z,94.5
2023-04-15T07:04:08.727Z,94.5
2023-04-15T07:05:09.863Z,94.5
2023-04-15T07:06:11.031Z,94.5
2023-04-15T07:07:12.192Z,94.5
2023-04-15T07:08:13.354Z,94.5
2023-04-15T07:09:14.529Z,94.5
2023-04-15T07:10:15.689Z,94.5
2023-04-15T07:11:16.862Z,94.5
2023-04-15T07:12:18.018Z,94.5
2023-04-15T07:13:18.857Z,94.5
2023-04-15T07:14:20.004Z,94.5
2023-04-15T07:15:21.100Z,94.5
2023-04-15T07:16:22.282Z,94.6
2023-04-15T07:17:23.334Z,94.5
2023-04-15T07:18:24.491Z,94.5
2023-04-15T07:19:25.682Z,94.5
2023-04-15T07:20:26.961Z,94.4
2023-04-15T07:21:28.149Z,94.4
2023-04-15T07:22:29.316Z,94.3
2023-04-15T07:23:30.486Z,94.3
2023-04-15T07:24:31.646Z,94.3
2023-04-15T07:25:32.815Z,94.3
2023-04-15T07:26:33.972Z,94.3
2023-04-15T07:27:34.942Z,94.3
2023-04-15T07:28:36.106Z,94.4
2023-04-15T07:29:37.315Z,94.4
2023-04-15T07:30:38.603Z,94.4
2023-04-15T07:31:39.752Z,94.4
2023-04-15T07:32:41.088Z,94.5
2023-04-15T07:33:42.237Z,94.5
2023-04-15T07:34:43.430Z,94.5
2023-04-15T07:35:45.095Z,94.6
2023-04-15T07:36:46.257Z,94.6
2023-04-15T07:37:47.423Z,94.5
2023-04-15T07:38:48.577Z,94.5
2023-04-15T07:39:49.744Z,94.5
2023-04-15T07:40:50.709Z,94.5
2023-04-15T07:41:51.889Z,94.5
2023-04-15T07:42:53.043Z,94.5
2023-04-15T07:43:54.209Z,94.5
2023-04-15T07:44:55.390Z,94.6
2023-04-15T07:45:56.640Z,94.6
2023-04-15T07:46:57.801Z,94.7
2023-04-15T07:47:59.156Z,94.7
2023-04-15T07:49:01.259Z,94.8
2023-04-15T07:50:02.564Z,94.8
2023-04-15T07:51:03.713Z,95
2023-04-15T07:52:04.878Z,95.1
2023-04-15T07:53:06.044Z,95.2
2023-04-15T07:54:07.210Z,95.3
2023-04-15T07:55:08.376Z,95.4
2023-04-15T07:56:09.539Z,95.5
2023-04-15T07:57:10.706Z,95.5
2023-04-15T07:58:11.873Z,95.6
2023-04-15T07:59:13.056Z,95.6
2023-04-15T08:00:14.204Z,95.6
2023-04-15T08:01:15.369Z,95.6
2023-04-15T08:02:16.923Z,95.7
2023-04-15T08:03:18.395Z,95.7
2023-04-15T08:04:20.184Z,95.7
2023-04-15T08:05:21.455Z,95.7
2023-04-15T08:06:22.594Z,95.6
2023-04-15T08:07:23.870Z,95.6
2023-04-15T08:08:25.046Z,95.6
2023-04-15T08:09:26.209Z,95.6
2023-04-15T08:10:27.399Z,95.5
2023-04-15T08:11:28.561Z,95.6
2023-04-15T08:12:29.564Z,95.6
2023-04-15T08:13:30.745Z,95.5
2023-04-15T08:14:31.896Z,95.4
2023-04-15T08:15:33.074Z,95.3
2023-04-15T08:16:34.403Z,95.3
2023-04-15T08:17:35.541Z,95.3
2023-04-15T08:18:36.681Z,95.3
2023-04-15T08:19:37.852Z,95.3
2023-04-15T08:20:39.044Z,95.3
2023-04-15T08:21:40.144Z,95.3
2023-04-15T08:22:41.307Z,95.4
2023-04-15T08:23:42.482Z,95.4
2023-04-15T08:24:43.646Z,95.4
2023-04-15T08:25:44.808Z,95.4
2023-04-15T08:26:45.969Z,95.4
2023-04-15T08:27:47.158Z,95.4
2023-04-15T08:28:48.306Z,95.3
2023-04-15T08:29:49.466Z,95.3
2023-04-15T08:30:50.628Z,95.3
2023-04-15T08:31:51.864Z,95.3
2023-04-15T08:32:53.116Z,95.2
2023-04-15T08:33:54.266Z,95.3
2023-04-15T08:34:55.436Z,95.3
2023-04-15T08:35:56.619Z,95.3
2023-04-15T08:36:57.759Z,95.3
2023-04-15T08:37:58.734Z,95.3
2023-04-15T08:39:00.146Z,95.3
2023-04-15T08:40:01.386Z,95.3
2023-04-15T08:41:02.532Z,95.3
2023-04-15T08:42:03.463Z,95.3
2023-04-15T08:43:04.410Z,95.4
2023-04-15T08:44:05.574Z,95.4
2023-04-15T08:45:06.738Z,95.4
2023-04-15T08:46:07.906Z,95.5
2023-04-15T08:47:09.017Z,95.5
2023-04-15T08:48:10.237Z,95.5
2023-04-15T08:49:11.404Z,95.4
2023-04-15T08:50:12.176Z,95.4
2023-04-15T08:51:13.300Z,95.4
2023-04-15T08:52:14.250Z,95.3
2023-04-15T08:53:15.412Z,95.3
2023-04-15T08:54:16.566Z,95.3
2023-04-15T08:55:17.729Z,95.3
2023-04-15T08:56:18.929Z,95.3
2023-04-15T08:57:20.068Z,95.2
2023-04-15T08:58:21.046Z,95.1
2023-04-15T08:59:22.223Z,95.1
2023-04-15T09:00:23.380Z,95.1
2023-04-15T09:01:24.829Z,95.1
2023-04-15T09:02:26.109Z,95
2023-04-15T09:03:27.440Z,95
2023-04-15T09:04:28.500Z,95
2023-04-15T09:05:29.524Z,95
2023-04-15T09:06:30.708Z,94.9
2023-04-15T09:07:31.656Z,94.9
2023-04-15T09:08:32.668Z,94.9
2023-04-15T09:09:33.878Z,94.9
2023-04-15T09:10:34.849Z,95
2023-04-15T09:11:36.005Z,95
2023-04-15T09:12:37.344Z,94.9
2023-04-15T09:13:38.303Z,94.9
2023-04-15T09:14:39.116Z,94.8
2023-04-15T09:15:39.930Z,94.8
2023-04-15T09:16:41.244Z,94.7
2023-04-15T09:17:42.467Z,94.6
2023-04-15T09:18:43.431Z,94.5
2023-04-15T09:19:44.593Z,94.5
2023-04-15T09:20:45.581Z,94.5
2023-04-15T09:21:46.751Z,94.5
2023-04-15T09:22:47.759Z,94.5
2023-04-15T09:23:48.722Z,94.6
2023-04-15T09:24:49.893Z,94.6
2023-04-15T09:25:50.909Z,94.5
2023-04-15T09:26:52.075Z,94.5
2023-04-15T09:27:53.234Z,94.6
2023-04-15T09:28:54.397Z,94.6
2023-04-15T09:29:55.564Z,94.5
2023-04-15T09:30:56.790Z,94.5
2023-04-15T09:31:57.843Z,94.5
2023-04-15T09:32:58.870Z,94.5
2023-04-15T09:34:00.351Z,94.5
2023-04-15T09:35:01.652Z,94.5
2023-04-15T09:36:02.622Z,94.4
2023-04-15T09:37:04.101Z,94.4
2023-04-15T09:38:05.518Z,94.4
2023-04-15T09:39:06.459Z,94.3
2023-04-15T09:40:07.425Z,94.3
2023-04-15T09:41:08.591Z,94.4
2023-04-15T09:42:09.763Z,94.3
2023-04-15T09:43:10.760Z,94.3
2023-04-15T09:44:11.896Z,94.3
2023-04-15T09:45:13.066Z,94.3
2023-04-15T09:46:14.647Z,94.3
2023-04-15T09:47:15.685Z,94.3
2023-04-15T09:48:16.864Z,94.4
2023-04-15T09:49:18.078Z,94.5
2023-04-15T09:50:19.222Z,94.5
2023-04-15T09:51:20.385Z,94.5
2023-04-15T09:52:21.222Z,94.6
2023-04-15T09:53:22.383Z,94.6
2023-04-15T09:54:23.537Z,94.6
2023-04-15T09:55:24.706Z,94.6
2023-04-15T09:56:25.672Z,94.6
2023-04-15T09:57:26.647Z,94.7
2023-04-15T09:58:27.806Z,94.7
2023-04-15T09:59:28.776Z,94.6
2023-04-15T10:00:29.944Z,94.6
2023-04-15T10:01:30.940Z,94.6
2023-04-15T10:02:32.171Z,94.6
2023-04-15T10:03:33.682Z,94.6
2023-04-15T10:04:34.836Z,94.5
2023-04-15T10:05:36.004Z,94.5
2023-04-15T10:06:37.180Z,94.5
2023-04-15T10:07:38.215Z,94.4
2023-04-15T10:08:39.157Z,94.4
2023-04-15T10:09:40.241Z,94.3
2023-04-15T10:10:41.399Z,94.4
2023-04-15T10:11:42.366Z,94.4
2023-04-15T10:12:43.337Z,94.5
2023-04-15T10:13:44.502Z,94.5
2023-04-15T10:14:45.678Z,94.5
2023-04-15T10:15:46.711Z,94.5
2023-04-15T10:16:47.866Z,94.5
2023-04-15T10:17:48.859Z,94.5
2023-04-15T10:18:49.897Z,94.6
2023-04-15T10:19:50.867Z,94.6
2023-04-15T10:20:51.840Z,94.6
2023-04-15T10:21:52.838Z,94.6
2023-04-15T10:22:53.834Z,94.6
2023-04-15T10:23:54.969Z,94.6
2023-04-15T10:24:56.133Z,94.6
2023-04-15T10:25:57.300Z,94.6
2023-04-15T10:26:58.467Z,94.7
2023-04-15T10:27:59.477Z,94.7
2023-04-15T10:29:01.117Z,94.8
2023-04-15T10:30:02.278Z,94.8
2023-04-15T10:31:03.108Z,94.7
2023-04-15T10:32:13.958Z,94.7
2023-04-15T10:33:14.937Z,94.7
2023-04-15T10:34:15.910Z,94.7
2023-04-15T10:35:17.066Z,94.7
2023-04-15T10:36:18.228Z,94.6
2023-04-15T10:37:19.214Z,94.6
2023-04-15T10:38:20.254Z,94.6
2023-04-15T10:39:21.272Z,94.6
2023-04-15T10:40:22.440Z,94.6
2023-04-15T10:41:23.612Z,94.6
2023-04-15T10:42:24.767Z,94.6
2023-04-15T10:43:25.736Z,94.7
2023-04-15T10:44:26.901Z,94.7
2023-04-15T10:45:27.870Z,94.7
2023-04-15T10:46:28.717Z,94.8
2023-04-15T10:47:29.889Z,94.8
2023-04-15T10:48:30.856Z,94.8
2023-04-15T10:49:32.022Z,94.8
2023-04-15T10:50:33.188Z,94.9
2023-04-15T10:51:34.349Z,95
2023-04-15T10:52:35.518Z,95
2023-04-15T10:53:36.510Z,95
2023-04-15T10:54:37.654Z,95
2023-04-15T10:55:38.619Z,95
2023-04-15T10:56:39.799Z,95
2023-04-15T10:57:40.947Z,95
2023-04-15T10:58:41.917Z,95.1
2023-04-15T10:59:43.083Z,95.1
2023-04-15T11:00:44.050Z,95
2023-04-15T11:01:44.943Z,95
2023-04-15T11:02:46.000Z,94.9
2023-04-15T11:03:47.511Z,94.9
2023-04-15T11:04:48.891Z,94.9
2023-04-15T11:05:50.014Z,94.9
2023-04-15T11:06:51.177Z,94.9
2023-04-15T11:07:52.194Z,94.9
2023-04-15T11:08:53.038Z,95
2023-04-15T11:09:54.049Z,95
2023-04-15T11:10:55.216Z,95
2023-04-15T11:11:56.185Z,95
2023-04-15T11:12:57.378Z,95.1
2023-04-15T11:13:58.318Z,95.1
2023-04-15T11:14:59.485Z,95.1
2023-04-15T11:16:00.682Z,95.1
2023-04-15T11:17:01.839Z,95.1
2023-04-15T11:18:03.134Z,95.1
2023-04-15T11:19:04.275Z,95.2
2023-04-15T11:20:05.437Z,95.2
2023-04-15T11:21:06.412Z,95.2
2023-04-15T11:22:07.384Z,95.3
2023-04-15T11:23:16.217Z,95.3
2023-04-15T11:24:17.183Z,95.3
2023-04-15T11:25:18.318Z,95.3
2023-04-15T11:26:19.286Z,95.4
2023-04-15T11:27:20.471Z,95.5
2023-04-15T11:28:21.632Z,95.4
2023-04-15T11:29:22.795Z,95.4
2023-04-15T11:30:23.764Z,95.4
2023-04-15T11:31:24.556Z,95.4
2023-04-15T11:32:25.745Z,95.3
2023-04-15T11:33:26.890Z,95.3
2023-04-15T11:34:27.904Z,95.2
2023-04-15T11:35:29.072Z,95.2
2023-04-15T11:36:30.104Z,95.2
2023-04-15T11:37:31.395Z,95.2
2023-04-15T11:38:32.440Z,95.2
2023-04-15T11:39:33.597Z,95.3
2023-04-15T11:40:34.734Z,95.3
2023-04-15T11:41:35.755Z,95.3
2023-04-15T11:42:50.425Z,95.4
2023-04-15T11:43:51.616Z,95.4
2023-04-15T11:44:52.763Z,95.4
2023-04-15T11:45:54.277Z,95.4
2023-04-15T11:46:55.534Z,95.5
2023-04-15T11:47:56.799Z,95.5
2023-04-15T11:48:57.698Z,95.5
2023-04-15T11:49:58.671Z,95.5
2023-04-15T11:50:59.835Z,95.5
2023-04-15T11:52:00.798Z,95.6
2023-04-15T11:53:01.776Z,95.6
2023-04-15T11:54:04.218Z,95.6
2023-04-15T11:55:05.361Z,95.7
2023-04-15T11:56:06.384Z,95.7
2023-04-15T11:57:07.571Z,95.6
2023-04-15T11:58:08.734Z,95.6
2023-04-15T11:59:09.701Z,95.6
2023-04-15T12:00:11.037Z,95.6
2023-04-15T12:01:12.182Z,95.6
2023-04-15T12:02:13.349Z,95.7
2023-04-15T12:03:15.536Z,95.7
2023-04-15T12:04:17.238Z,95.7
2023-04-15T12:05:18.750Z,95.7
2023-04-15T12:06:20.276Z,95.7
2023-04-15T12:07:21.437Z,95.8
2023-04-15T12:08:22.606Z,95.8
2023-04-15T12:09:23.600Z,95.8
2023-04-15T12:10:24.773Z,95.9
2023-04-15T12:11:25.796Z,95.9
2023-04-15T12:12:26.840Z,96
2023-04-15T12:13:28.000Z,96
2023-04-15T12:14:29.175Z,96
2023-04-15T12:15:30.644Z,96
2023-04-15T12:16:31.695Z,96
2023-04-15T12:17:52.830Z,96.1
2023-04-15T12:18:54.021Z,96.1
2023-04-15T12:19:54.985Z,96.1
2023-04-15T12:20:55.969Z,96.1
2023-04-15T12:22:00.869Z,96.1
2023-04-15T12:23:02.168Z,96.2
2023-04-15T12:24:04.672Z,96.2
2023-04-15T12:25:05.629Z,96.1
2023-04-15T12:26:06.819Z,96.1
2023-04-15T12:27:07.878Z,96.1
2023-04-15T12:28:09.033Z,96.1
2023-04-15T12:29:10.203Z,96.1
2023-04-15T12:30:11.362Z,96.1
2023-04-15T12:31:12.447Z,96.2
2023-04-15T12:32:13.247Z,96.3
2023-04-15T12:33:14.414Z,96.3
2023-04-15T12:34:15.578Z,96.4
2023-04-15T12:35:16.740Z,96.4
2023-04-15T12:36:17.911Z,96.4
2023-04-15T12:37:18.882Z,96.4
2023-04-15T12:38:20.038Z,96.4
2023-04-15T12:39:21.215Z,96.4
2023-04-15T12:40:22.370Z,96.4
2023-04-15T12:41:23.362Z,96.4
2023-04-15T12:42:24.501Z,96.4
2023-04-15T12:43:25.671Z,96.4
2023-04-15T12:44:26.830Z,96.4
2023-04-15T12:45:30.485Z,96.3
2023-04-15T12:46:31.666Z,96.3
2023-04-15T12:47:32.867Z,96.4
2023-04-15T12:48:34.014Z,96.4
2023-04-15T12:49:35.181Z,96.5
2023-04-15T12:50:36.335Z,96.4
2023-04-15T12:51:37.498Z,96.5
2023-04-15T12:52:38.665Z,96.5
2023-04-15T12:53:39.829Z,96.5
2023-04-15T12:54:40.794Z,96.5
2023-04-15T12:55:41.968Z,96.5
2023-04-15T12:56:43.151Z,96.5
2023-04-15T12:57:44.288Z,96.5
2023-04-15T12:58:45.734Z,96.5
2023-04-15T12:59:46.897Z,96.5
2023-04-15T13:00:48.064Z,96.5
2023-04-15T13:01:49.488Z,96.5
2023-04-15T13:02:51.288Z,96.6
2023-04-15T13:03:52.789Z,96.6
2023-04-15T13:04:54.109Z,96.7
2023-04-15T13:05:55.382Z,96.8
2023-04-15T13:06:56.221Z,96.8
2023-04-15T13:07:57.181Z,96.9
2023-04-15T13:08:59.611Z,96.9
2023-04-15T13:10:00.580Z,97
2023-04-15T13:11:01.611Z,97
2023-04-15T13:12:02.406Z,97.1
2023-04-15T13:13:03.416Z,97.1
2023-04-15T13:14:05.112Z,97.2
2023-04-15T13:15:06.406Z,97.2
2023-04-15T13:16:07.247Z,97.3
2023-04-15T13:17:08.261Z,97.3
2023-04-15T13:18:09.234Z,97.3
2023-04-15T13:19:10.409Z,97.4
2023-04-15T13:20:11.564Z,97.4
2023-04-15T13:21:12.532Z,97.5
2023-04-15T13:22:13.309Z,97.5
2023-04-15T13:23:14.469Z,97.5
2023-04-15T13:24:15.631Z,97.5
2023-04-15T13:25:16.801Z,97.6
2023-04-15T13:26:17.768Z,97.6
2023-04-15T13:27:18.956Z,97.6
2023-04-15T13:28:20.102Z,97.6
2023-04-15T13:29:20.979Z,97.6
2023-04-15T13:30:22.147Z,97.6
2023-04-15T13:31:23.366Z,97.6
2023-04-15T13:32:24.449Z,97.7
2023-04-15T13:33:25.599Z,97.7
2023-04-15T13:34:26.566Z,97.7
2023-04-15T13:35:27.344Z,97.7
2023-04-15T13:36:28.311Z,97.8
2023-04-15T13:37:29.319Z,97.8
2023-04-15T13:38:30.487Z,98
2023-04-15T13:39:31.652Z,98.1
2023-04-15T13:40:32.813Z,98.2